sensor_id;sensor_type;location;lat;lon;timestamp;temperature;humidity
19974;DHT22;10148;47.694;9.442;2022-09-24T00:01:17;14.40;99.90
19974;DHT22;10148;47.694;9.442;2022-09-24T00:03:48;14.30;99.90
19974;DHT22;10148;47.694;9.442;2022-09-24T00:06:15;14.30;99.90
19974;DHT22;10148;47.694;9.442;2022-09-24T00:08:47;14.30;99.90
19974;DHT22;10148;47.694;9.442;2022-09-24T00:11:14;14.30;99.90
19974;DHT22;10148;47.694;9.442;2022-09-24T00:13:41;14.20;99.90
19974;DHT22;10148;47.694;9.442;2022-09-24T00:16:10;14.20;99.90
19974;DHT22;10148;47.694;9.442;2022-09-24T00:18:36;14.10;99.90
19974;DHT22;10148;47.694;9.442;2022-09-24T00:21:13;14.10;99.90
19974;DHT22;10148;47.694;9.442;2022-09-24T00:23:39;14.00;99.90
19974;DHT22;10148;47.694;9.442;2022-09-24T00:26:05;14.10;99.90
19974;DHT22;10148;47.694;9.442;2022-09-24T00:28:50;14.00;99.90
19974;DHT22;10148;47.694;9.442;2022-09-24T00:31:16;14.00;99.90
19974;DHT22;10148;47.694;9.442;2022-09-24T00:33:41;14.00;99.90
19974;DHT22;10148;47.694;9.442;2022-09-24T00:36:08;14.00;99.90
19974;DHT22;10148;47.694;9.442;2022-09-24T00:38:34;14.00;99.90
19974;DHT22;10148;47.694;9.442;2022-09-24T00:41:01;14.00;99.90
19974;DHT22;10148;47.694;9.442;2022-09-24T00:43:32;13.90;99.90
19974;DHT22;10148;47.694;9.442;2022-09-24T00:46:22;13.90;99.90
19974;DHT22;10148;47.694;9.442;2022-09-24T00:48:52;13.90;99.90
19974;DHT22;10148;47.694;9.442;2022-09-24T00:51:21;13.90;99.90
19974;DHT22;10148;47.694;9.442;2022-09-24T00:53:50;13.80;99.90
19974;DHT22;10148;47.694;9.442;2022-09-24T00:56:18;13.80;99.90
19974;DHT22;10148;47.694;9.442;2022-09-24T00:58:48;13.80;99.90
19974;DHT22;10148;47.694;9.442;2022-09-24T01:01:18;13.80;99.90
19974;DHT22;10148;47.694;9.442;2022-09-24T01:03:44;13.80;99.90
19974;DHT22;10148;47.694;9.442;2022-09-24T01:06:11;13.70;99.90
19974;DHT22;10148;47.694;9.442;2022-09-24T01:08:37;13.70;99.90
19974;DHT22;10148;47.694;9.442;2022-09-24T01:16:53;13.60;99.90
19974;DHT22;10148;47.694;9.442;2022-09-24T01:22:27;13.60;99.90
19974;DHT22;10148;47.694;9.442;2022-09-24T01:25:19;13.50;99.90
19974;DHT22;10148;47.694;9.442;2022-09-24T01:28:00;13.40;99.90
19974;DHT22;10148;47.694;9.442;2022-09-24T01:30:30;13.40;99.90
19974;DHT22;10148;47.694;9.442;2022-09-24T01:33:01;13.40;99.90
19974;DHT22;10148;47.694;9.442;2022-09-24T01:35:34;13.30;99.90
19974;DHT22;10148;47.694;9.442;2022-09-24T01:38:05;13.30;99.90
19974;DHT22;10148;47.694;9.442;2022-09-24T01:40:32;13.20;99.90
19974;DHT22;10148;47.694;9.442;2022-09-24T01:42:59;13.20;99.90
19974;DHT22;10148;47.694;9.442;2022-09-24T01:45:27;13.10;99.90
19974;DHT22;10148;47.694;9.442;2022-09-24T01:47:58;13.10;99.90
19974;DHT22;10148;47.694;9.442;2022-09-24T01:50:25;13.00;99.90
19974;DHT22;10148;47.694;9.442;2022-09-24T01:53:00;13.10;99.90
19974;DHT22;10148;47.694;9.442;2022-09-24T01:55:30;13.10;99.90
19974;DHT22;10148;47.694;9.442;2022-09-24T01:58:02;13.10;99.90
19974;DHT22;10148;47.694;9.442;2022-09-24T02:00:30;13.10;99.90
19974;DHT22;10148;47.694;9.442;2022-09-24T02:03:10;13.10;99.90
19974;DHT22;10148;47.694;9.442;2022-09-24T02:06:00;13.10;99.90
19974;DHT22;10148;47.694;9.442;2022-09-24T02:08:36;13.20;99.90
19974;DHT22;10148;47.694;9.442;2022-09-24T02:11:12;13.20;99.90
19974;DHT22;10148;47.694;9.442;2022-09-24T02:14:07;13.20;99.90
19974;DHT22;10148;47.694;9.442;2022-09-24T02:16:37;13.20;99.90
19974;DHT22;10148;47.694;9.442;2022-09-24T02:19:06;13.20;99.90
19974;DHT22;10148;47.694;9.442;2022-09-24T02:21:35;13.20;99.90
19974;DHT22;10148;47.694;9.442;2022-09-24T02:24:07;13.30;99.90
19974;DHT22;10148;47.694;9.442;2022-09-24T02:26:35;13.20;99.90
19974;DHT22;10148;47.694;9.442;2022-09-24T02:29:00;13.00;99.90
19974;DHT22;10148;47.694;9.442;2022-09-24T02:31:29;13.00;99.90
19974;DHT22;10148;47.694;9.442;2022-09-24T02:33:58;13.00;99.90
19974;DHT22;10148;47.694;9.442;2022-09-24T02:36:44;13.00;99.90
19974;DHT22;10148;47.694;9.442;2022-09-24T02:39:09;13.00;99.90
19974;DHT22;10148;47.694;9.442;2022-09-24T02:41:35;13.10;99.90
19974;DHT22;10148;47.694;9.442;2022-09-24T02:44:01;13.10;99.90
19974;DHT22;10148;47.694;9.442;2022-09-24T02:48:54;12.90;99.90
19974;DHT22;10148;47.694;9.442;2022-09-24T02:51:20;12.80;99.90
19974;DHT22;10148;47.694;9.442;2022-09-24T02:53:46;12.80;99.90
19974;DHT22;10148;47.694;9.442;2022-09-24T02:56:11;12.80;99.90
19974;DHT22;10148;47.694;9.442;2022-09-24T02:58:37;12.80;99.90
19974;DHT22;10148;47.694;9.442;2022-09-24T03:01:04;12.80;99.90
19974;DHT22;10148;47.694;9.442;2022-09-24T03:03:30;12.80;99.90
19974;DHT22;10148;47.694;9.442;2022-09-24T03:05:55;12.90;99.90
19974;DHT22;10148;47.694;9.442;2022-09-24T03:08:22;12.90;99.90
19974;DHT22;10148;47.694;9.442;2022-09-24T03:10:49;12.90;99.90
19974;DHT22;10148;47.694;9.442;2022-09-24T03:13:18;12.90;99.90
19974;DHT22;10148;47.694;9.442;2022-09-24T03:15:44;12.90;99.90
19974;DHT22;10148;47.694;9.442;2022-09-24T03:18:10;12.90;99.90
19974;DHT22;10148;47.694;9.442;2022-09-24T03:20:35;12.90;99.90
19974;DHT22;10148;47.694;9.442;2022-09-24T03:23:01;12.90;99.90
19974;DHT22;10148;47.694;9.442;2022-09-24T03:25:27;12.90;99.90
19974;DHT22;10148;47.694;9.442;2022-09-24T03:27:52;12.90;99.90
19974;DHT22;10148;47.694;9.442;2022-09-24T03:30:18;12.90;99.90
19974;DHT22;10148;47.694;9.442;2022-09-24T03:33:02;13.00;99.90
19974;DHT22;10148;47.694;9.442;2022-09-24T03:35:28;13.00;99.90
19974;DHT22;10148;47.694;9.442;2022-09-24T03:37:54;13.00;99.90
19974;DHT22;10148;47.694;9.442;2022-09-24T03:40:19;12.90;99.90
19974;DHT22;10148;47.694;9.442;2022-09-24T03:42:45;12.90;99.90
19974;DHT22;10148;47.694;9.442;2022-09-24T03:45:10;12.90;99.90
19974;DHT22;10148;47.694;9.442;2022-09-24T03:47:36;12.90;99.90
19974;DHT22;10148;47.694;9.442;2022-09-24T03:50:02;12.90;99.90
19974;DHT22;10148;47.694;9.442;2022-09-24T03:52:27;12.90;99.90
19974;DHT22;10148;47.694;9.442;2022-09-24T03:54:53;12.90;99.90
19974;DHT22;10148;47.694;9.442;2022-09-24T03:57:19;12.90;99.90
19974;DHT22;10148;47.694;9.442;2022-09-24T03:59:44;12.80;99.90
19974;DHT22;10148;47.694;9.442;2022-09-24T04:02:10;12.80;99.90
19974;DHT22;10148;47.694;9.442;2022-09-24T04:04:36;12.80;99.90
19974;DHT22;10148;47.694;9.442;2022-09-24T04:07:02;12.80;99.90
19974;DHT22;10148;47.694;9.442;2022-09-24T04:09:28;12.80;99.90
19974;DHT22;10148;47.694;9.442;2022-09-24T04:11:53;12.80;99.90
19974;DHT22;10148;47.694;9.442;2022-09-24T04:14:19;12.80;99.90
19974;DHT22;10148;47.694;9.442;2022-09-24T04:16:45;12.80;99.90
19974;DHT22;10148;47.694;9.442;2022-09-24T04:19:12;12.80;99.90
19974;DHT22;10148;47.694;9.442;2022-09-24T04:21:38;12.70;99.90
19974;DHT22;10148;47.694;9.442;2022-09-24T04:24:04;12.70;99.90
19974;DHT22;10148;47.694;9.442;2022-09-24T04:26:29;12.70;99.90
19974;DHT22;10148;47.694;9.442;2022-09-24T04:28:55;12.80;99.90
19974;DHT22;10148;47.694;9.442;2022-09-24T04:31:23;12.70;99.90
19974;DHT22;10148;47.694;9.442;2022-09-24T04:33:51;12.70;99.90
19974;DHT22;10148;47.694;9.442;2022-09-24T04:36:16;12.70;99.90
19974;DHT22;10148;47.694;9.442;2022-09-24T04:38:42;12.70;99.90
19974;DHT22;10148;47.694;9.442;2022-09-24T04:41:10;12.70;99.90
19974;DHT22;10148;47.694;9.442;2022-09-24T04:43:37;12.70;99.90
19974;DHT22;10148;47.694;9.442;2022-09-24T04:46:04;12.70;99.90
19974;DHT22;10148;47.694;9.442;2022-09-24T04:48:30;12.70;99.90
19974;DHT22;10148;47.694;9.442;2022-09-24T04:50:56;12.70;99.90
19974;DHT22;10148;47.694;9.442;2022-09-24T04:53:22;12.80;99.90
19974;DHT22;10148;47.694;9.442;2022-09-24T04:55:48;12.80;99.90
19974;DHT22;10148;47.694;9.442;2022-09-24T04:58:14;12.80;99.90
19974;DHT22;10148;47.694;9.442;2022-09-24T05:00:39;12.80;99.90
19974;DHT22;10148;47.694;9.442;2022-09-24T05:03:07;12.80;99.90
19974;DHT22;10148;47.694;9.442;2022-09-24T05:05:34;12.80;99.90
19974;DHT22;10148;47.694;9.442;2022-09-24T05:08:00;12.80;99.90
19974;DHT22;10148;47.694;9.442;2022-09-24T05:10:27;12.70;99.90
19974;DHT22;10148;47.694;9.442;2022-09-24T05:12:53;12.70;99.90
19974;DHT22;10148;47.694;9.442;2022-09-24T05:15:18;12.60;99.90
19974;DHT22;10148;47.694;9.442;2022-09-24T05:17:44;12.60;99.90
19974;DHT22;10148;47.694;9.442;2022-09-24T05:20:10;12.70;99.90
19974;DHT22;10148;47.694;9.442;2022-09-24T05:22:43;12.70;99.90
19974;DHT22;10148;47.694;9.442;2022-09-24T05:25:11;12.70;99.90
19974;DHT22;10148;47.694;9.442;2022-09-24T05:27:42;12.70;99.90
19974;DHT22;10148;47.694;9.442;2022-09-24T05:30:08;12.80;99.90
19974;DHT22;10148;47.694;9.442;2022-09-24T05:32:33;12.80;99.90
19974;DHT22;10148;47.694;9.442;2022-09-24T05:35:01;12.80;99.90
19974;DHT22;10148;47.694;9.442;2022-09-24T05:37:26;12.80;99.90
19974;DHT22;10148;47.694;9.442;2022-09-24T05:39:52;12.80;99.90
19974;DHT22;10148;47.694;9.442;2022-09-24T05:42:19;12.90;99.90
19974;DHT22;10148;47.694;9.442;2022-09-24T05:44:44;12.90;99.90
19974;DHT22;10148;47.694;9.442;2022-09-24T05:47:10;12.90;99.90
19974;DHT22;10148;47.694;9.442;2022-09-24T05:49:36;12.90;99.90
19974;DHT22;10148;47.694;9.442;2022-09-24T05:52:02;12.90;99.90
19974;DHT22;10148;47.694;9.442;2022-09-24T05:54:28;12.90;99.90
19974;DHT22;10148;47.694;9.442;2022-09-24T05:56:54;12.90;99.90
19974;DHT22;10148;47.694;9.442;2022-09-24T05:59:19;12.90;99.90
19974;DHT22;10148;47.694;9.442;2022-09-24T06:01:45;12.90;99.90
19974;DHT22;10148;47.694;9.442;2022-09-24T06:04:11;12.90;99.90
19974;DHT22;10148;47.694;9.442;2022-09-24T06:06:37;12.90;99.90
19974;DHT22;10148;47.694;9.442;2022-09-24T06:09:03;12.90;99.90
19974;DHT22;10148;47.694;9.442;2022-09-24T06:11:31;12.90;99.90
19974;DHT22;10148;47.694;9.442;2022-09-24T06:14:02;12.90;99.90
19974;DHT22;10148;47.694;9.442;2022-09-24T06:16:30;12.90;99.90
19974;DHT22;10148;47.694;9.442;2022-09-24T06:18:56;12.90;99.90
19974;DHT22;10148;47.694;9.442;2022-09-24T06:21:22;12.90;99.90
19974;DHT22;10148;47.694;9.442;2022-09-24T06:23:47;12.90;99.90
19974;DHT22;10148;47.694;9.442;2022-09-24T06:26:13;12.90;99.90
19974;DHT22;10148;47.694;9.442;2022-09-24T06:28:39;13.00;99.90
19974;DHT22;10148;47.694;9.442;2022-09-24T06:31:06;12.90;99.90
19974;DHT22;10148;47.694;9.442;2022-09-24T06:33:32;12.90;99.90
19974;DHT22;10148;47.694;9.442;2022-09-24T06:36:02;12.90;99.90
19974;DHT22;10148;47.694;9.442;2022-09-24T06:38:28;12.90;99.90
19974;DHT22;10148;47.694;9.442;2022-09-24T06:41:01;13.00;99.90
19974;DHT22;10148;47.694;9.442;2022-09-24T06:43:27;13.00;99.90
19974;DHT22;10148;47.694;9.442;2022-09-24T06:45:57;12.90;99.90
19974;DHT22;10148;47.694;9.442;2022-09-24T06:48:23;12.90;99.90
19974;DHT22;10148;47.694;9.442;2022-09-24T06:50:48;12.90;99.90
19974;DHT22;10148;47.694;9.442;2022-09-24T06:53:14;13.00;99.90
19974;DHT22;10148;47.694;9.442;2022-09-24T06:55:40;12.90;99.90
19974;DHT22;10148;47.694;9.442;2022-09-24T06:58:10;12.90;99.90
19974;DHT22;10148;47.694;9.442;2022-09-24T07:00:37;12.90;99.90
19974;DHT22;10148;47.694;9.442;2022-09-24T07:03:03;12.90;99.90
19974;DHT22;10148;47.694;9.442;2022-09-24T07:05:29;13.00;99.90
19974;DHT22;10148;47.694;9.442;2022-09-24T07:07:55;13.00;99.90
19974;DHT22;10148;47.694;9.442;2022-09-24T07:10:20;13.00;99.90
19974;DHT22;10148;47.694;9.442;2022-09-24T07:12:48;13.00;99.90
19974;DHT22;10148;47.694;9.442;2022-09-24T07:15:14;13.00;99.90
19974;DHT22;10148;47.694;9.442;2022-09-24T07:17:40;13.10;99.90
19974;DHT22;10148;47.694;9.442;2022-09-24T07:20:06;13.00;99.90
19974;DHT22;10148;47.694;9.442;2022-09-24T07:22:36;13.00;99.90
19974;DHT22;10148;47.694;9.442;2022-09-24T07:25:02;13.00;99.90
19974;DHT22;10148;47.694;9.442;2022-09-24T07:27:27;13.00;99.90
19974;DHT22;10148;47.694;9.442;2022-09-24T07:29:53;13.00;99.90
19974;DHT22;10148;47.694;9.442;2022-09-24T07:32:19;13.10;99.90
19974;DHT22;10148;47.694;9.442;2022-09-24T07:34:44;13.10;99.90
19974;DHT22;10148;47.694;9.442;2022-09-24T07:37:10;13.10;99.90
19974;DHT22;10148;47.694;9.442;2022-09-24T07:39:36;13.20;99.90
19974;DHT22;10148;47.694;9.442;2022-09-24T07:42:01;13.20;99.90
19974;DHT22;10148;47.694;9.442;2022-09-24T07:44:27;13.20;99.90
19974;DHT22;10148;47.694;9.442;2022-09-24T07:46:54;13.30;99.90
19974;DHT22;10148;47.694;9.442;2022-09-24T07:49:20;13.30;99.90
19974;DHT22;10148;47.694;9.442;2022-09-24T07:51:46;13.30;99.90
19974;DHT22;10148;47.694;9.442;2022-09-24T07:54:12;13.30;99.90
19974;DHT22;10148;47.694;9.442;2022-09-24T07:56:38;13.40;99.90
19974;DHT22;10148;47.694;9.442;2022-09-24T07:59:04;13.50;99.90
19974;DHT22;10148;47.694;9.442;2022-09-24T08:01:35;13.50;99.90
19974;DHT22;10148;47.694;9.442;2022-09-24T08:04:01;13.50;99.90
19974;DHT22;10148;47.694;9.442;2022-09-24T08:06:29;13.60;99.90
19974;DHT22;10148;47.694;9.442;2022-09-24T08:08:58;13.60;99.90
19974;DHT22;10148;47.694;9.442;2022-09-24T08:11:23;13.60;99.90
19974;DHT22;10148;47.694;9.442;2022-09-24T08:13:49;13.70;99.90
19974;DHT22;10148;47.694;9.442;2022-09-24T08:16:16;13.70;99.90
19974;DHT22;10148;47.694;9.442;2022-09-24T08:18:42;13.70;99.90
19974;DHT22;10148;47.694;9.442;2022-09-24T08:21:09;13.70;99.90
19974;DHT22;10148;47.694;9.442;2022-09-24T08:23:36;13.80;99.90
19974;DHT22;10148;47.694;9.442;2022-09-24T08:26:03;13.80;99.90
19974;DHT22;10148;47.694;9.442;2022-09-24T08:28:29;13.80;99.90
19974;DHT22;10148;47.694;9.442;2022-09-24T08:31:00;13.80;99.90
19974;DHT22;10148;47.694;9.442;2022-09-24T08:33:26;13.70;99.90
19974;DHT22;10148;47.694;9.442;2022-09-24T08:35:52;13.70;99.90
19974;DHT22;10148;47.694;9.442;2022-09-24T08:38:17;13.70;99.90
19974;DHT22;10148;47.694;9.442;2022-09-24T08:40:53;13.70;99.90
19974;DHT22;10148;47.694;9.442;2022-09-24T08:43:44;13.70;99.90
19974;DHT22;10148;47.694;9.442;2022-09-24T08:46:18;13.70;99.90
19974;DHT22;10148;47.694;9.442;2022-09-24T08:49:05;13.70;99.90
19974;DHT22;10148;47.694;9.442;2022-09-24T08:51:38;13.70;99.90
19974;DHT22;10148;47.694;9.442;2022-09-24T08:54:08;13.70;99.90
19974;DHT22;10148;47.694;9.442;2022-09-24T08:56:37;13.70;99.90
19974;DHT22;10148;47.694;9.442;2022-09-24T09:01:59;13.80;99.90
19974;DHT22;10148;47.694;9.442;2022-09-24T09:05:00;13.90;99.90
19974;DHT22;10148;47.694;9.442;2022-09-24T09:08:11;13.90;99.90
19974;DHT22;10148;47.694;9.442;2022-09-24T09:10:40;14.00;99.90
19974;DHT22;10148;47.694;9.442;2022-09-24T09:13:11;14.10;99.90
19974;DHT22;10148;47.694;9.442;2022-09-24T09:15:42;14.10;99.90
19974;DHT22;10148;47.694;9.442;2022-09-24T09:21:36;14.20;99.90
19974;DHT22;10148;47.694;9.442;2022-09-24T09:24:05;14.10;99.90
19974;DHT22;10148;47.694;9.442;2022-09-24T09:26:35;14.20;99.90
19974;DHT22;10148;47.694;9.442;2022-09-24T09:29:00;14.20;99.90
19974;DHT22;10148;47.694;9.442;2022-09-24T09:37:08;14.40;99.90
19974;DHT22;10148;47.694;9.442;2022-09-24T09:44:46;14.50;99.90
19974;DHT22;10148;47.694;9.442;2022-09-24T09:50:10;14.50;99.90
19974;DHT22;10148;47.694;9.442;2022-09-24T09:52:39;14.50;99.90
19974;DHT22;10148;47.694;9.442;2022-09-24T09:55:05;14.50;99.90
19974;DHT22;10148;47.694;9.442;2022-09-24T09:57:33;14.50;99.90
19974;DHT22;10148;47.694;9.442;2022-09-24T10:00:00;14.60;99.90
19974;DHT22;10148;47.694;9.442;2022-09-24T10:02:29;14.60;99.90
19974;DHT22;10148;47.694;9.442;2022-09-24T10:04:58;14.70;99.90
19974;DHT22;10148;47.694;9.442;2022-09-24T10:07:25;14.70;99.90
19974;DHT22;10148;47.694;9.442;2022-09-24T10:10:17;14.70;99.90
19974;DHT22;10148;47.694;9.442;2022-09-24T10:12:44;14.90;99.90
19974;DHT22;10148;47.694;9.442;2022-09-24T10:15:17;15.00;99.90
19974;DHT22;10148;47.694;9.442;2022-09-24T10:17:45;15.00;99.90
19974;DHT22;10148;47.694;9.442;2022-09-24T10:20:22;14.90;99.90
19974;DHT22;10148;47.694;9.442;2022-09-24T10:22:53;15.00;99.90
19974;DHT22;10148;47.694;9.442;2022-09-24T10:25:25;14.90;99.90
19974;DHT22;10148;47.694;9.442;2022-09-24T10:27:53;14.90;99.90
19974;DHT22;10148;47.694;9.442;2022-09-24T10:30:57;14.90;99.90
19974;DHT22;10148;47.694;9.442;2022-09-24T10:33:25;14.90;99.90
19974;DHT22;10148;47.694;9.442;2022-09-24T10:36:03;14.90;99.90
19974;DHT22;10148;47.694;9.442;2022-09-24T10:38:29;14.90;99.90
19974;DHT22;10148;47.694;9.442;2022-09-24T10:40:56;14.90;99.90
19974;DHT22;10148;47.694;9.442;2022-09-24T10:43:21;15.00;99.90
19974;DHT22;10148;47.694;9.442;2022-09-24T10:48:28;14.90;99.90
19974;DHT22;10148;47.694;9.442;2022-09-24T10:51:07;14.90;99.90
19974;DHT22;10148;47.694;9.442;2022-09-24T10:53:55;14.90;99.90
19974;DHT22;10148;47.694;9.442;2022-09-24T10:56:35;14.90;99.90
19974;DHT22;10148;47.694;9.442;2022-09-24T11:04:58;14.90;99.90
19974;DHT22;10148;47.694;9.442;2022-09-24T11:07:41;15.00;99.90
19974;DHT22;10148;47.694;9.442;2022-09-24T11:10:46;15.00;99.90
19974;DHT22;10148;47.694;9.442;2022-09-24T11:18:42;14.90;99.90
19974;DHT22;10148;47.694;9.442;2022-09-24T11:22:02;14.90;99.90
19974;DHT22;10148;47.694;9.442;2022-09-24T11:24:35;15.00;99.90
19974;DHT22;10148;47.694;9.442;2022-09-24T11:29:58;15.00;99.90
19974;DHT22;10148;47.694;9.442;2022-09-24T11:32:35;15.10;99.90
19974;DHT22;10148;47.694;9.442;2022-09-24T11:46:31;15.30;99.90
19974;DHT22;10148;47.694;9.442;2022-09-24T11:51:48;15.30;99.90
19974;DHT22;10148;47.694;9.442;2022-09-24T11:57:09;15.30;99.90
19974;DHT22;10148;47.694;9.442;2022-09-24T11:59:55;15.30;99.90
19974;DHT22;10148;47.694;9.442;2022-09-24T12:02:35;15.20;99.90
19974;DHT22;10148;47.694;9.442;2022-09-24T12:07:43;15.20;99.90
19974;DHT22;10148;47.694;9.442;2022-09-24T12:12:51;15.20;99.90
19974;DHT22;10148;47.694;9.442;2022-09-24T12:15:21;15.30;99.90
19974;DHT22;10148;47.694;9.442;2022-09-24T12:17:53;15.20;99.90
19974;DHT22;10148;47.694;9.442;2022-09-24T12:20:27;15.20;99.90
19974;DHT22;10148;47.694;9.442;2022-09-24T12:22:58;15.30;99.90
19974;DHT22;10148;47.694;9.442;2022-09-24T12:25:28;15.30;99.90
19974;DHT22;10148;47.694;9.442;2022-09-24T12:27:57;15.30;99.90
19974;DHT22;10148;47.694;9.442;2022-09-24T12:30:44;15.20;99.90
19974;DHT22;10148;47.694;9.442;2022-09-24T12:33:42;15.10;99.90
19974;DHT22;10148;47.694;9.442;2022-09-24T12:36:44;15.10;99.90
19974;DHT22;10148;47.694;9.442;2022-09-24T12:39:19;15.00;99.90
19974;DHT22;10148;47.694;9.442;2022-09-24T12:41:50;15.00;99.90
19974;DHT22;10148;47.694;9.442;2022-09-24T12:46:59;14.90;99.90
19974;DHT22;10148;47.694;9.442;2022-09-24T12:51:58;14.90;99.90
19974;DHT22;10148;47.694;9.442;2022-09-24T12:57:16;15.10;99.90
19974;DHT22;10148;47.694;9.442;2022-09-24T12:59:52;15.10;99.90
19974;DHT22;10148;47.694;9.442;2022-09-24T13:02:50;15.10;99.90
19974;DHT22;10148;47.694;9.442;2022-09-24T13:05:17;15.10;99.90
19974;DHT22;10148;47.694;9.442;2022-09-24T13:08:38;15.20;99.90
19974;DHT22;10148;47.694;9.442;2022-09-24T13:10:53;15.30;99.90
19974;DHT22;10148;47.694;9.442;2022-09-24T13:13:31;15.40;99.90
19974;DHT22;10148;47.694;9.442;2022-09-24T13:16:03;15.40;99.90
19974;DHT22;10148;47.694;9.442;2022-09-24T13:18:31;15.70;99.90
19974;DHT22;10148;47.694;9.442;2022-09-24T13:21:07;16.00;99.90
19974;DHT22;10148;47.694;9.442;2022-09-24T13:26:06;16.20;99.90
19974;DHT22;10148;47.694;9.442;2022-09-24T13:29:02;16.10;99.90
19974;DHT22;10148;47.694;9.442;2022-09-24T13:33:57;16.00;99.90
19974;DHT22;10148;47.694;9.442;2022-09-24T13:44:53;15.50;99.90
19974;DHT22;10148;47.694;9.442;2022-09-24T13:47:58;15.50;99.90
19974;DHT22;10148;47.694;9.442;2022-09-24T13:50:29;15.40;99.90
19974;DHT22;10148;47.694;9.442;2022-09-24T13:55:52;15.40;99.90
19974;DHT22;10148;47.694;9.442;2022-09-24T13:58:48;15.30;99.90
19974;DHT22;10148;47.694;9.442;2022-09-24T14:01:27;15.20;99.90
19974;DHT22;10148;47.694;9.442;2022-09-24T14:03:58;15.20;99.90
19974;DHT22;10148;47.694;9.442;2022-09-24T14:06:47;15.20;99.90
19974;DHT22;10148;47.694;9.442;2022-09-24T14:09:34;15.20;99.90
19974;DHT22;10148;47.694;9.442;2022-09-24T14:12:17;15.20;99.90
19974;DHT22;10148;47.694;9.442;2022-09-24T14:14:51;15.10;99.90
19974;DHT22;10148;47.694;9.442;2022-09-24T14:17:18;15.10;99.90
19974;DHT22;10148;47.694;9.442;2022-09-24T14:19:43;15.10;99.90
19974;DHT22;10148;47.694;9.442;2022-09-24T14:22:19;15.00;99.90
19974;DHT22;10148;47.694;9.442;2022-09-24T14:24:56;15.00;99.90
19974;DHT22;10148;47.694;9.442;2022-09-24T14:27:23;15.00;99.90
19974;DHT22;10148;47.694;9.442;2022-09-24T14:30:02;15.00;99.90
19974;DHT22;10148;47.694;9.442;2022-09-24T14:32:31;15.00;99.90
19974;DHT22;10148;47.694;9.442;2022-09-24T14:34:59;15.00;99.90
19974;DHT22;10148;47.694;9.442;2022-09-24T14:37:37;15.00;99.90
19974;DHT22;10148;47.694;9.442;2022-09-24T14:40:11;14.90;99.90
19974;DHT22;10148;47.694;9.442;2022-09-24T14:42:52;14.90;99.90
19974;DHT22;10148;47.694;9.442;2022-09-24T14:45:39;14.90;99.90
19974;DHT22;10148;47.694;9.442;2022-09-24T14:48:28;14.90;99.90
19974;DHT22;10148;47.694;9.442;2022-09-24T14:50:54;14.80;99.90
19974;DHT22;10148;47.694;9.442;2022-09-24T14:53:31;14.90;99.90
19974;DHT22;10148;47.694;9.442;2022-09-24T14:55:58;14.90;99.90
19974;DHT22;10148;47.694;9.442;2022-09-24T15:00:59;14.90;99.90
19974;DHT22;10148;47.694;9.442;2022-09-24T15:03:31;15.00;99.90
19974;DHT22;10148;47.694;9.442;2022-09-24T15:06:04;15.00;99.90
19974;DHT22;10148;47.694;9.442;2022-09-24T15:08:30;15.10;99.90
19974;DHT22;10148;47.694;9.442;2022-09-24T15:11:03;15.10;99.90
19974;DHT22;10148;47.694;9.442;2022-09-24T15:13:31;15.20;99.90
19974;DHT22;10148;47.694;9.442;2022-09-24T15:16:18;15.20;99.90
19974;DHT22;10148;47.694;9.442;2022-09-24T15:19:00;15.30;99.90
19974;DHT22;10148;47.694;9.442;2022-09-24T15:21:29;15.30;99.90
19974;DHT22;10148;47.694;9.442;2022-09-24T15:23:55;15.30;99.90
19974;DHT22;10148;47.694;9.442;2022-09-24T15:26:22;15.30;99.90
19974;DHT22;10148;47.694;9.442;2022-09-24T15:28:49;15.30;99.90
19974;DHT22;10148;47.694;9.442;2022-09-24T15:31:15;15.20;99.90
19974;DHT22;10148;47.694;9.442;2022-09-24T15:33:40;15.20;99.90
19974;DHT22;10148;47.694;9.442;2022-09-24T15:36:08;15.10;99.90
19974;DHT22;10148;47.694;9.442;2022-09-24T15:38:34;15.10;99.90
19974;DHT22;10148;47.694;9.442;2022-09-24T15:40:59;15.00;99.90
19974;DHT22;10148;47.694;9.442;2022-09-24T15:43:25;15.00;99.90
19974;DHT22;10148;47.694;9.442;2022-09-24T15:45:51;14.90;99.90
19974;DHT22;10148;47.694;9.442;2022-09-24T15:48:16;14.90;99.90
19974;DHT22;10148;47.694;9.442;2022-09-24T15:50:44;14.90;99.90
19974;DHT22;10148;47.694;9.442;2022-09-24T15:53:24;14.90;99.90
19974;DHT22;10148;47.694;9.442;2022-09-24T15:55:57;14.90;99.90
19974;DHT22;10148;47.694;9.442;2022-09-24T15:58:23;15.00;99.90
19974;DHT22;10148;47.694;9.442;2022-09-24T16:00:49;15.00;99.90
19974;DHT22;10148;47.694;9.442;2022-09-24T16:03:21;14.90;99.90
19974;DHT22;10148;47.694;9.442;2022-09-24T16:05:48;14.90;99.90
19974;DHT22;10148;47.694;9.442;2022-09-24T16:08:14;14.90;99.90
19974;DHT22;10148;47.694;9.442;2022-09-24T16:10:40;14.90;99.90
19974;DHT22;10148;47.694;9.442;2022-09-24T16:13:06;14.90;99.90
19974;DHT22;10148;47.694;9.442;2022-09-24T16:15:32;14.90;99.90
19974;DHT22;10148;47.694;9.442;2022-09-24T16:17:58;14.90;99.90
19974;DHT22;10148;47.694;9.442;2022-09-24T16:20:24;14.90;99.90
19974;DHT22;10148;47.694;9.442;2022-09-24T16:22:49;15.00;99.90
19974;DHT22;10148;47.694;9.442;2022-09-24T16:25:15;14.90;99.90
19974;DHT22;10148;47.694;9.442;2022-09-24T16:27:40;15.00;99.90
19974;DHT22;10148;47.694;9.442;2022-09-24T16:30:07;15.00;99.90
19974;DHT22;10148;47.694;9.442;2022-09-24T16:32:32;15.00;99.90
19974;DHT22;10148;47.694;9.442;2022-09-24T16:34:58;14.90;99.90
19974;DHT22;10148;47.694;9.442;2022-09-24T16:37:24;14.90;99.90
19974;DHT22;10148;47.694;9.442;2022-09-24T16:39:50;14.90;99.90
19974;DHT22;10148;47.694;9.442;2022-09-24T16:42:15;14.90;99.90
19974;DHT22;10148;47.694;9.442;2022-09-24T16:44:41;15.00;99.90
19974;DHT22;10148;47.694;9.442;2022-09-24T16:47:07;14.90;99.90
19974;DHT22;10148;47.694;9.442;2022-09-24T16:49:32;14.90;99.90
19974;DHT22;10148;47.694;9.442;2022-09-24T16:51:59;14.90;99.90
19974;DHT22;10148;47.694;9.442;2022-09-24T16:54:26;14.90;99.90
19974;DHT22;10148;47.694;9.442;2022-09-24T16:56:53;14.90;99.90
19974;DHT22;10148;47.694;9.442;2022-09-24T16:59:20;14.90;99.90
19974;DHT22;10148;47.694;9.442;2022-09-24T17:01:45;14.80;99.90
19974;DHT22;10148;47.694;9.442;2022-09-24T17:04:11;14.70;99.90
19974;DHT22;10148;47.694;9.442;2022-09-24T17:06:36;14.70;99.90
19974;DHT22;10148;47.694;9.442;2022-09-24T17:09:02;14.60;99.90
19974;DHT22;10148;47.694;9.442;2022-09-24T17:11:46;14.50;99.90
19974;DHT22;10148;47.694;9.442;2022-09-24T17:14:13;14.50;99.90
19974;DHT22;10148;47.694;9.442;2022-09-24T17:16:40;14.40;99.90
19974;DHT22;10148;47.694;9.442;2022-09-24T17:19:06;14.40;99.90
19974;DHT22;10148;47.694;9.442;2022-09-24T17:21:33;14.30;99.90
19974;DHT22;10148;47.694;9.442;2022-09-24T17:23:59;14.30;99.90
19974;DHT22;10148;47.694;9.442;2022-09-24T17:26:24;14.30;99.90